Time;durP1;ratioP1;P1;durP2;ratioP2;P2;SDS_P1;SDS_P2;PMS_P1;PMS_P2;Temp;Humidity;BMP_temperature;BMP_pressure;BME280_temperature;BME280_humidity;BME280_pressure;Samples;Min_cycle;Max_cycle;Signal;HPM_P1;HPM_P2
2024/01/22 00:02:15;;;;;;;6.53;3.90;;;14.70;50.20;;;;;;5061256;28;20441;-79
2024/01/22 00:04:44;;;;;;;7.53;4.57;;;14.60;50.10;;;;;;5046491;28;20443;-80
2024/01/22 00:07:13;;;;;;;6.83;3.90;;;14.60;50.30;;;;;;5055955;28;20566;-78
2024/01/22 00:09:42;;;;;;;5.80;4.20;;;14.70;50.30;;;;;;5056765;28;20442;-80
2024/01/22 00:12:12;;;;;;;4.97;3.97;;;14.70;50.30;;;;;;5056088;28;20454;-78
2024/01/22 00:14:42;;;;;;;4.73;3.80;;;14.70;50.30;;;;;;5056927;28;20443;-80
2024/01/22 00:17:12;;;;;;;6.13;4.20;;;14.80;50.50;;;;;;5058924;28;20439;-79
2024/01/22 00:19:40;;;;;;;6.43;3.73;;;14.80;50.40;;;;;;5058011;28;20434;-79
2024/01/22 00:22:09;;;;;;;6.83;3.40;;;14.80;50.40;;;;;;5056671;28;20446;-79
2024/01/22 00:24:37;;;;;;;8.23;4.17;;;14.80;50.50;;;;;;5054063;28;20484;-79
2024/01/22 00:27:06;;;;;;;6.30;3.83;;;14.80;50.60;;;;;;5054240;28;20493;-79
2024/01/22 00:29:36;;;;;;;6.43;3.43;;;14.70;50.50;;;;;;5055117;28;20442;-79
2024/01/22 00:32:04;;;;;;;6.30;3.13;;;14.80;50.50;;;;;;5054529;28;20457;-77
2024/01/22 00:34:33;;;;;;;6.93;3.83;;;14.80;50.70;;;;;;5056709;28;20439;-78
2024/01/22 00:37:01;;;;;;;5.87;3.77;;;14.80;50.70;;;;;;5053661;28;20457;-77
2024/01/22 00:39:29;;;;;;;5.33;3.60;;;14.80;50.70;;;;;;5054022;28;20492;-75
2024/01/22 00:41:57;;;;;;;5.50;3.83;;;14.90;50.90;;;;;;5065594;28;20445;-76
2024/01/22 00:44:26;;;;;;;6.20;3.47;;;14.90;51.80;;;;;;5071862;28;20450;-75
2024/01/22 00:46:55;;;;;;;6.37;3.53;;;15.00;52.60;;;;;;5071936;28;20556;-75
2024/01/22 00:49:23;;;;;;;5.23;3.83;;;15.10;52.20;;;;;;5067708;28;20477;-75
2024/01/22 00:51:52;;;;;;;4.70;3.73;;;15.00;51.90;;;;;;5055303;28;20430;-75
2024/01/22 00:54:20;;;;;;;7.43;3.73;;;15.00;52.00;;;;;;5071799;28;20544;-76
2024/01/22 00:56:48;;;;;;;4.33;3.47;;;15.00;52.00;;;;;;5072583;28;20444;-74
2024/01/22 00:59:16;;;;;;;5.90;3.30;;;15.00;52.10;;;;;;5067817;28;20448;-75
2024/01/22 01:01:44;;;;;;;4.57;3.30;;;15.00;52.10;;;;;;5061783;28;20503;-76
2024/01/22 01:04:13;;;;;;;4.07;3.10;;;15.00;51.90;;;;;;5059630;28;20457;-75
2024/01/22 01:06:42;;;;;;;8.20;3.50;;;15.00;52.00;;;;;;5054750;28;20580;-76
2024/01/22 01:09:10;;;;;;;5.70;3.53;;;15.00;52.10;;;;;;5056029;28;20443;-74
2024/01/22 01:11:38;;;;;;;2.93;2.70;;;15.00;52.20;;;;;;5055746;28;20482;-76
2024/01/22 01:14:06;;;;;;;3.80;2.90;;;15.00;52.10;;;;;;5055181;28;20552;-73
2024/01/22 01:16:34;;;;;;;5.47;3.37;;;15.00;52.00;;;;;;5055623;28;20430;-76
2024/01/22 01:19:02;;;;;;;2.67;2.47;;;15.00;52.10;;;;;;5055529;28;20525;-76
2024/01/22 01:21:32;;;;;;;4.43;2.87;;;15.00;52.20;;;;;;5055126;28;20457;-76
2024/01/22 01:24:00;;;;;;;3.80;2.93;;;15.00;52.10;;;;;;5055294;28;20541;-76
2024/01/22 01:26:28;;;;;;;2.90;2.70;;;15.00;52.20;;;;;;5055226;28;20473;-76
2024/01/22 01:28:56;;;;;;;5.10;3.03;;;15.10;52.20;;;;;;5055585;28;20489;-76
2024/01/22 01:31:28;;;;;;;4.40;3.03;;;15.00;52.20;;;;;;5055466;28;20438;-77
2024/01/22 01:33:56;;;;;;;4.00;2.97;;;15.00;52.40;;;;;;5054903;28;20482;-77
2024/01/22 01:36:24;;;;;;;2.77;2.60;;;15.00;52.20;;;;;;5069167;28;20445;-76
2024/01/22 01:38:54;;;;;;;3.97;2.60;;;15.00;52.40;;;;;;5074210;28;20514;-75
2024/01/22 01:41:22;;;;;;;3.10;2.80;;;15.10;52.50;;;;;;5075119;28;20449;-74
2024/01/22 01:43:50;;;;;;;3.40;3.10;;;15.00;52.40;;;;;;5057898;28;20993;-75
2024/01/22 01:46:18;;;;;;;7.30;2.80;;;15.00;52.50;;;;;;5035505;28;20910;-76
2024/01/22 01:48:47;;;;;;;4.07;2.40;;;15.10;52.50;;;;;;5035436;28;20521;-75
2024/01/22 01:51:15;;;;;;;2.50;2.30;;;15.10;52.60;;;;;;5035572;28;20626;-76
2024/01/22 01:53:44;;;;;;;3.80;2.60;;;15.10;52.60;;;;;;5059834;28;20458;-76
2024/01/22 01:56:14;;;;;;;3.80;2.60;;;15.10;52.60;;;;;;5064258;28;20473;-75
2024/01/22 01:58:42;;;;;;;4.70;2.60;;;15.10;52.60;;;;;;5070011;28;20504;-74
2024/01/22 02:01:10;;;;;;;2.80;2.33;;;15.10;52.50;;;;;;5075154;28;20499;-75
2024/01/22 02:03:38;;;;;;;3.00;2.77;;;15.10;52.70;;;;;;5063378;28;20468;-77
2024/01/22 02:06:07;;;;;;;3.27;2.37;;;15.10;52.70;;;;;;5068062;28;20447;-77
2024/01/22 02:08:35;;;;;;;7.60;2.80;;;15.10;52.70;;;;;;5060212;28;20470;-77
2024/01/22 02:11:03;;;;;;;2.70;2.50;;;15.20;52.80;;;;;;5057366;28;20435;-78
2024/01/22 02:13:32;;;;;;;3.70;2.60;;;15.20;52.70;;;;;;5073012;28;20482;-77
2024/01/22 02:16:00;;;;;;;3.27;2.50;;;15.20;52.70;;;;;;5067960;28;20460;-76
2024/01/22 02:18:28;;;;;;;2.57;2.40;;;15.20;52.90;;;;;;5055068;28;20477;-77
2024/01/22 02:20:56;;;;;;;2.93;2.67;;;15.20;52.70;;;;;;5078570;28;20430;-76
2024/01/22 02:23:25;;;;;;;3.50;2.70;;;15.20;52.70;;;;;;5095314;28;20580;-77
2024/01/22 02:25:53;;;;;;;3.10;2.80;;;15.30;52.80;;;;;;5093255;28;20429;-79
2024/01/22 02:28:21;;;;;;;2.80;2.60;;;15.30;52.60;;;;;;5074960;28;20534;-76
2024/01/22 02:30:49;;;;;;;3.10;2.40;;;15.30;52.60;;;;;;5062365;28;20465;-74
2024/01/22 02:33:18;;;;;;;2.70;2.50;;;15.30;52.60;;;;;;5073120;28;20561;-75
2024/01/22 02:35:46;;;;;;;3.43;2.70;;;15.30;52.50;;;;;;5069546;28;20442;-75
2024/01/22 02:38:14;;;;;;;2.50;2.30;;;15.30;52.80;;;;;;5074677;28;20445;-75
2024/01/22 02:40:43;;;;;;;3.00;2.50;;;15.30;52.60;;;;;;5075177;28;20541;-74
2024/01/22 02:43:11;;;;;;;4.60;2.33;;;15.30;52.60;;;;;;5074075;28;20505;-75
2024/01/22 02:45:40;;;;;;;2.60;2.33;;;15.30;52.70;;;;;;5074710;28;20495;-74
2024/01/22 02:48:08;;;;;;;4.97;3.03;;;15.30;52.80;;;;;;5074456;28;20474;-75
2024/01/22 02:50:36;;;;;;;2.70;2.50;;;15.40;52.80;;;;;;5074428;28;20983;-76
2024/01/22 02:53:04;;;;;;;3.07;2.77;;;15.40;52.80;;;;;;5063807;28;20467;-76
2024/01/22 02:55:35;;;;;;;3.03;2.83;;;15.40;52.80;;;;;;5054213;28;20423;-75
2024/01/22 02:58:05;;;;;;;2.83;2.50;;;15.40;53.00;;;;;;5054480;28;20466;-74
2024/01/22 03:00:33;;;;;;;4.40;2.90;;;15.40;53.00;;;;;;5053930;28;20447;-75
2024/01/22 03:03:01;;;;;;;3.23;2.90;;;15.50;53.20;;;;;;5053032;28;21007;-75
2024/01/22 03:05:30;;;;;;;2.70;2.50;;;15.40;53.20;;;;;;5053576;28;20442;-75
2024/01/22 03:08:00;;;;;;;5.30;3.00;;;15.30;53.40;;;;;;5049148;28;20539;-75
2024/01/22 03:10:28;;;;;;;4.20;2.90;;;15.30;53.70;;;;;;5053901;28;20454;-75
2024/01/22 03:12:56;;;;;;;3.30;3.00;;;15.40;53.80;;;;;;5053218;28;20487;-75
2024/01/22 03:15:25;;;;;;;3.77;2.90;;;15.40;54.00;;;;;;5053550;28;20450;-75
2024/01/22 03:17:53;;;;;;;3.43;3.07;;;15.40;53.80;;;;;;5053448;28;20442;-75
2024/01/22 03:20:21;;;;;;;2.73;2.53;;;15.40;54.00;;;;;;5053296;28;20447;-75
2024/01/22 03:22:49;;;;;;;3.70;3.10;;;15.40;54.20;;;;;;5052782;28;20505;-75
2024/01/22 03:25:18;;;;;;;3.73;2.80;;;15.40;54.20;;;;;;5053300;28;20525;-76
2024/01/22 03:27:47;;;;;;;3.50;2.50;;;15.50;54.50;;;;;;5052312;28;20473;-75
2024/01/22 03:30:15;;;;;;;3.27;2.97;;;15.40;54.40;;;;;;5053614;28;20470;-75
2024/01/22 03:32:45;;;;;;;4.67;3.10;;;15.40;54.50;;;;;;5052784;28;20565;-75
2024/01/22 03:35:13;;;;;;;3.20;2.90;;;15.30;54.60;;;;;;5053204;28;20446;-75
2024/01/22 03:37:41;;;;;;;3.00;2.70;;;15.40;54.90;;;;;;5052300;28;20526;-76
2024/01/22 03:40:10;;;;;;;3.03;2.83;;;15.40;54.80;;;;;;5053245;28;20531;-75
2024/01/22 03:42:37;;;;;;;3.00;2.70;;;15.40;55.00;;;;;;5052640;28;20466;-74
2024/01/22 03:45:06;;;;;;;4.90;3.07;;;15.40;55.10;;;;;;5053253;28;20489;-75
2024/01/22 03:47:34;;;;;;;2.73;2.63;;;15.50;55.00;;;;;;5052478;28;20445;-74
2024/01/22 03:50:06;;;;;;;3.00;2.80;;;15.50;55.30;;;;;;5053489;28;20478;-74
2024/01/22 03:52:34;;;;;;;4.70;3.10;;;15.50;55.40;;;;;;5052317;28;20965;-75
2024/01/22 03:55:02;;;;;;;4.87;2.80;;;15.50;55.40;;;;;;5052678;28;20442;-74
2024/01/22 03:57:30;;;;;;;3.20;2.93;;;15.50;55.40;;;;;;5052868;28;20466;-74
2024/01/22 03:59:58;;;;;;;4.93;2.57;;;15.50;55.50;;;;;;5052735;28;20443;-76
2024/01/22 04:02:29;;;;;;;2.97;2.77;;;15.50;55.70;;;;;;5051898;28;20993;-75
2024/01/22 04:04:58;;;;;;;3.67;2.90;;;15.50;55.70;;;;;;5052575;28;20451;-76
2024/01/22 04:07:28;;;;;;;3.23;2.87;;;15.50;55.70;;;;;;5039403;28;20506;-75
2024/01/22 04:09:56;;;;;;;3.77;2.70;;;15.50;55.80;;;;;;5051958;28;20466;-75
2024/01/22 04:12:24;;;;;;;4.90;2.70;;;15.50;55.90;;;;;;5046781;28;20475;-74
2024/01/22 04:14:53;;;;;;;2.80;2.60;;;15.50;56.00;;;;;;5049352;28;20537;-76
2024/01/22 04:17:21;;;;;;;5.00;2.90;;;15.50;56.20;;;;;;5052568;28;20453;-75
2024/01/22 04:19:49;;;;;;;3.03;2.80;;;15.50;56.30;;;;;;5052695;28;20449;-76
2024/01/22 04:22:17;;;;;;;3.10;2.80;;;15.50;56.20;;;;;;5051738;28;20681;-75
2024/01/22 04:24:46;;;;;;;3.80;3.00;;;15.50;56.30;;;;;;5052627;28;20462;-74
2024/01/22 04:27:14;;;;;;;3.37;2.87;;;15.50;56.30;;;;;;5052332;28;20488;-75
2024/01/22 04:29:43;;;;;;;3.37;3.00;;;15.50;56.30;;;;;;5051959;28;20480;-76
2024/01/22 04:32:11;;;;;;;3.40;3.10;;;15.50;56.40;;;;;;5051716;28;20469;-76
2024/01/22 04:34:39;;;;;;;4.40;3.40;;;15.50;56.40;;;;;;5052338;28;20453;-76
2024/01/22 04:37:08;;;;;;;3.17;2.90;;;15.50;56.50;;;;;;5052434;28;20447;-76
2024/01/22 04:39:36;;;;;;;3.10;2.90;;;15.50;56.60;;;;;;5052132;28;20471;-76
2024/01/22 04:42:05;;;;;;;3.63;3.30;;;15.50;56.70;;;;;;5051747;28;20489;-75
2024/01/22 04:44:34;;;;;;;3.07;2.87;;;15.60;56.80;;;;;;5052126;28;20446;-76
2024/01/22 04:47:02;;;;;;;4.10;3.70;;;15.60;56.70;;;;;;5052008;28;20454;-75
2024/01/22 04:49:30;;;;;;;3.93;2.80;;;15.60;56.70;;;;;;5051726;28;20470;-75
2024/01/22 04:51:59;;;;;;;3.33;3.03;;;15.60;56.70;;;;;;5051550;28;20447;-76
2024/01/22 04:54:27;;;;;;;3.13;2.87;;;15.60;56.70;;;;;;5051758;28;20435;-75
2024/01/22 04:56:55;;;;;;;2.70;2.50;;;15.60;56.70;;;;;;5052289;28;20442;-74
2024/01/22 04:59:25;;;;;;;3.73;3.10;;;15.60;56.80;;;;;;5051904;28;20443;-74
2024/01/22 05:01:53;;;;;;;2.80;2.60;;;15.60;57.00;;;;;;5051603;28;20446;-74
2024/01/22 05:04:21;;;;;;;3.07;2.87;;;15.60;56.90;;;;;;5051573;28;20454;-75
2024/01/22 05:06:49;;;;;;;4.87;2.83;;;15.60;56.90;;;;;;5051441;28;20828;-76
2024/01/22 05:09:17;;;;;;;4.23;3.13;;;15.70;57.20;;;;;;5051426;28;20565;-75
2024/01/22 05:11:45;;;;;;;2.70;2.40;;;15.60;57.20;;;;;;5051299;28;20434;-75
2024/01/22 05:14:12;;;;;;;4.67;2.70;;;15.70;57.50;;;;;;5051092;28;20458;-75
2024/01/22 05:16:42;;;;;;;2.70;2.30;;;15.70;57.40;;;;;;5050647;28;20466;-75
2024/01/22 05:19:09;;;;;;;2.30;2.20;;;15.70;57.50;;;;;;5051799;28;20469;-75
2024/01/22 05:21:38;;;;;;;3.17;2.87;;;15.70;57.60;;;;;;5051942;28;20450;-75
2024/01/22 05:24:07;;;;;;;3.00;2.70;;;15.70;57.70;;;;;;5051166;28;20478;-75
2024/01/22 05:26:36;;;;;;;2.60;2.40;;;15.70;57.80;;;;;;5052141;28;20529;-76
2024/01/22 05:29:04;;;;;;;2.60;2.40;;;15.70;57.70;;;;;;5051726;28;20470;-75
2024/01/22 05:31:32;;;;;;;2.50;2.30;;;15.70;58.00;;;;;;5051841;28;20953;-75
2024/01/22 05:34:02;;;;;;;2.63;2.43;;;15.70;58.10;;;;;;5050816;28;20500;-75
2024/01/22 05:36:30;;;;;;;2.20;2.10;;;15.70;58.00;;;;;;5047353;28;20463;-75
2024/01/22 05:38:59;;;;;;;2.40;2.20;;;15.80;58.20;;;;;;5051378;28;20538;-76
2024/01/22 05:41:27;;;;;;;2.67;2.50;;;15.80;58.20;;;;;;5051603;28;20453;-74
2024/01/22 05:43:55;;;;;;;2.47;2.23;;;15.80;58.20;;;;;;5051021;28;20511;-74
2024/01/22 05:46:23;;;;;;;2.30;2.20;;;15.80;58.10;;;;;;5051367;28;20581;-75
2024/01/22 05:48:51;;;;;;;2.10;2.00;;;15.80;58.20;;;;;;5051316;28;20450;-75
2024/01/22 05:51:21;;;;;;;2.17;2.07;;;15.80;58.20;;;;;;5052978;28;20448;-75
2024/01/22 05:53:50;;;;;;;2.30;2.20;;;15.80;58.30;;;;;;5055791;28;21005;-76
2024/01/22 05:56:21;;;;;;;2.00;1.90;;;15.80;58.40;;;;;;5071722;28;20526;-75
2024/01/22 05:58:50;;;;;;;2.13;2.03;;;15.90;58.40;;;;;;5070832;28;20446;-76
2024/01/22 06:01:21;;;;;;;2.50;2.30;;;15.90;58.30;;;;;;5058478;28;20458;-76
2024/01/22 06:03:49;;;;;;;2.40;2.20;;;15.90;58.60;;;;;;5057010;28;20465;-75
2024/01/22 06:06:17;;;;;;;2.20;2.00;;;15.90;58.60;;;;;;5053646;28;20537;-75
2024/01/22 06:08:47;;;;;;;2.20;2.10;;;15.90;58.60;;;;;;5036436;28;20448;-75
2024/01/22 06:11:17;;;;;;;1.90;1.80;;;15.90;58.70;;;;;;5055057;28;20528;-76
2024/01/22 06:13:44;;;;;;;2.07;1.97;;;15.90;58.80;;;;;;5054420;28;20458;-75
2024/01/22 06:16:28;;;;;;;2.10;2.00;;;15.90;58.80;;;;;;5053890;28;20441;-74
2024/01/22 06:18:55;;;;;;;1.83;1.73;;;15.90;58.90;;;;;;5054427;28;20479;-75
2024/01/22 06:21:25;;;;;;;1.80;1.70;;;16.00;59.00;;;;;;5058794;28;20803;-75
2024/01/22 06:23:54;;;;;;;2.13;2.03;;;16.00;59.00;;;;;;5057699;28;20470;-76
2024/01/22 06:26:24;;;;;;;2.20;2.10;;;16.00;59.00;;;;;;5058103;28;20485;-77
2024/01/22 06:28:52;;;;;;;1.70;1.60;;;15.90;59.00;;;;;;5055950;28;20847;-76
2024/01/22 06:31:21;;;;;;;1.80;1.70;;;16.00;59.00;;;;;;5054228;28;20838;-75
2024/01/22 06:33:49;;;;;;;2.03;1.93;;;16.00;59.10;;;;;;5054910;28;20537;-76
2024/01/22 06:36:18;;;;;;;2.10;2.00;;;16.00;59.20;;;;;;5054752;28;20449;-75
2024/01/22 06:38:46;;;;;;;1.70;1.60;;;16.00;59.10;;;;;;5054360;28;20469;-76
2024/01/22 06:41:18;;;;;;;1.57;1.57;;;16.00;59.20;;;;;;5054385;28;20474;-76
2024/01/22 06:43:47;;;;;;;1.90;1.80;;;16.10;59.20;;;;;;5053966;28;20478;-77
2024/01/22 06:46:15;;;;;;;1.73;1.67;;;16.10;59.30;;;;;;5054528;28;20447;-76
2024/01/22 06:48:44;;;;;;;1.50;1.43;;;16.20;59.40;;;;;;5054766;28;20443;-74
2024/01/22 06:51:13;;;;;;;1.70;1.60;;;16.20;59.30;;;;;;5050231;28;20559;-75
2024/01/22 06:53:41;;;;;;;1.70;1.67;;;16.20;59.20;;;;;;5053166;28;20470;-76
2024/01/22 06:56:10;;;;;;;1.80;1.70;;;16.30;59.30;;;;;;5055553;28;20451;-76
2024/01/22 06:58:39;;;;;;;2.27;2.07;;;16.30;59.20;;;;;;5055340;28;20538;-75
2024/01/22 07:01:07;;;;;;;3.43;1.50;;;16.30;59.20;;;;;;5057288;28;20556;-76
2024/01/22 07:03:36;;;;;;;1.90;1.80;;;16.30;59.30;;;;;;5055096;28;20512;-76
2024/01/22 07:06:05;;;;;;;1.77;1.63;;;16.30;59.30;;;;;;5055356;28;20443;-74
2024/01/22 07:08:33;;;;;;;1.60;1.50;;;16.30;59.30;;;;;;5055554;28;20492;-74
2024/01/22 07:11:01;;;;;;;1.77;1.60;;;16.40;59.30;;;;;;5056062;28;20528;-74
2024/01/22 07:13:29;;;;;;;1.87;1.77;;;16.40;59.40;;;;;;5054892;28;20996;-74
2024/01/22 07:15:59;;;;;;;3.17;1.53;;;16.40;59.40;;;;;;5053609;28;20442;-75
2024/01/22 07:18:27;;;;;;;1.63;1.53;;;16.40;59.30;;;;;;5063506;28;20472;-75
2024/01/22 07:20:55;;;;;;;1.93;1.83;;;16.40;59.30;;;;;;5065922;28;20442;-75
2024/01/22 07:23:23;;;;;;;1.60;1.50;;;16.40;59.30;;;;;;5066076;28;20458;-75
2024/01/22 07:25:51;;;;;;;1.83;1.67;;;16.50;59.50;;;;;;5058844;28;20469;-75
2024/01/22 07:28:19;;;;;;;1.67;1.57;;;16.50;59.60;;;;;;5054008;28;20477;-74
2024/01/22 07:30:47;;;;;;;1.60;1.50;;;16.50;59.70;;;;;;5053997;28;20502;-75
2024/01/22 07:33:17;;;;;;;1.20;1.20;;;16.50;59.80;;;;;;5053561;28;20512;-75
2024/01/22 07:35:45;;;;;;;2.50;1.33;;;16.60;59.80;;;;;;5053771;28;20466;-75
2024/01/22 07:38:13;;;;;;;1.50;1.40;;;16.60;59.90;;;;;;5053663;28;20809;-74
2024/01/22 07:40:42;;;;;;;1.60;1.50;;;16.60;59.80;;;;;;5053322;28;20439;-74
2024/01/22 07:43:11;;;;;;;2.60;1.50;;;16.60;59.80;;;;;;5052496;28;20508;-74
2024/01/22 07:45:40;;;;;;;1.53;1.40;;;16.60;59.80;;;;;;5056346;28;20442;-75
2024/01/22 07:48:08;;;;;;;2.40;1.50;;;16.70;59.80;;;;;;5053510;28;20477;-75
2024/01/22 07:50:37;;;;;;;2.40;1.40;;;16.70;59.70;;;;;;5053357;28;20532;-76
2024/01/22 07:53:06;;;;;;;1.50;1.40;;;16.70;59.60;;;;;;5058527;28;20469;-75
2024/01/22 07:55:34;;;;;;;2.80;1.50;;;16.70;59.60;;;;;;5069266;28;20443;-74
2024/01/22 07:58:02;;;;;;;1.67;1.57;;;16.70;59.60;;;;;;5061687;28;20431;-75
2024/01/22 08:00:33;;;;;;;1.67;1.57;;;16.70;59.70;;;;;;5052255;28;20508;-76
2024/01/22 08:03:02;;;;;;;1.80;1.53;;;16.70;59.80;;;;;;5052161;28;20510;-75
2024/01/22 08:05:30;;;;;;;1.37;1.23;;;16.80;59.80;;;;;;5053259;28;21011;-75
2024/01/22 08:08:00;;;;;;;2.20;1.37;;;16.80;59.60;;;;;;5052896;28;20447;-75
2024/01/22 08:10:28;;;;;;;2.13;1.60;;;16.80;59.70;;;;;;5052614;28;20473;-76
2024/01/22 08:12:55;;;;;;;2.20;1.40;;;16.90;59.80;;;;;;5052173;28;20541;-76
2024/01/22 08:15:24;;;;;;;1.50;1.40;;;16.90;59.80;;;;;;5048730;28;20476;-76
2024/01/22 08:17:51;;;;;;;2.03;1.50;;;16.80;59.70;;;;;;5032384;28;20439;-75
2024/01/22 08:20:20;;;;;;;3.93;1.70;;;16.90;59.80;;;;;;5059364;28;20442;-75
2024/01/22 08:22:49;;;;;;;1.90;1.67;;;16.90;59.70;;;;;;5067978;28;20520;-75
2024/01/22 08:25:26;;;;;;;2.33;1.33;;;16.90;59.70;;;;;;5052340;28;20442;-76
2024/01/22 08:27:54;;;;;;;3.83;1.27;;;16.90;59.70;;;;;;5062564;28;20476;-77
2024/01/22 08:30:23;;;;;;;1.40;1.30;;;16.90;59.60;;;;;;5045639;28;20936;-76
2024/01/22 08:32:52;;;;;;;1.73;1.63;;;17.00;59.70;;;;;;5058827;28;20450;-76
2024/01/22 08:35:20;;;;;;;2.80;1.60;;;17.00;59.70;;;;;;5058291;28;20430;-76
2024/01/22 08:37:52;;;;;;;1.97;1.60;;;17.00;59.60;;;;;;5056645;28;20485;-76
2024/01/22 08:40:22;;;;;;;1.70;1.30;;;17.00;59.70;;;;;;5052128;28;20945;-76
2024/01/22 08:42:50;;;;;;;1.63;1.40;;;17.00;59.60;;;;;;5051804;28;20467;-76
2024/01/22 08:45:19;;;;;;;1.80;1.70;;;17.00;59.50;;;;;;5041690;28;20451;-76
2024/01/22 08:47:47;;;;;;;3.27;1.83;;;17.10;59.60;;;;;;5042353;28;20985;-76
2024/01/22 08:50:17;;;;;;;2.23;1.60;;;17.10;59.60;;;;;;5052646;28;20442;-76
2024/01/22 08:52:46;;;;;;;1.50;1.40;;;17.10;59.60;;;;;;5059627;28;20477;-78
2024/01/22 08:55:15;;;;;;;1.30;1.20;;;17.10;59.70;;;;;;5038194;28;20462;-74
2024/01/22 08:57:44;;;;;;;4.00;1.53;;;17.10;59.60;;;;;;5042468;28;20463;-74
2024/01/22 09:00:14;;;;;;;2.27;1.80;;;17.20;59.60;;;;;;5051627;28;20482;-76
2024/01/22 09:02:42;;;;;;;2.73;1.50;;;17.20;59.60;;;;;;5049774;28;20469;-75
2024/01/22 09:05:12;;;;;;;2.47;1.50;;;17.20;59.60;;;;;;5052379;28;20450;-77
2024/01/22 09:07:41;;;;;;;4.30;2.00;;;17.20;59.50;;;;;;5049789;28;20502;-78
2024/01/22 09:10:11;;;;;;;2.87;1.70;;;17.20;59.60;;;;;;5049107;28;20542;-75
2024/01/22 09:12:39;;;;;;;1.50;1.40;;;17.20;59.70;;;;;;5050161;28;20478;-75
2024/01/22 09:15:10;;;;;;;1.47;1.37;;;17.20;59.70;;;;;;5066112;28;20450;-75
2024/01/22 09:17:39;;;;;;;1.67;1.53;;;17.30;59.80;;;;;;5067565;28;20448;-75
2024/01/22 09:20:08;;;;;;;1.80;1.53;;;17.20;59.90;;;;;;5063739;28;20472;-74
2024/01/22 09:22:36;;;;;;;2.23;1.50;;;17.20;59.80;;;;;;5056460;28;20470;-75
2024/01/22 09:25:05;;;;;;;2.33;1.33;;;17.20;59.90;;;;;;5055090;28;20462;-74
2024/01/22 09:27:33;;;;;;;1.40;1.30;;;17.20;60.70;;;;;;5052238;28;20447;-75
2024/01/22 09:30:01;;;;;;;1.40;1.30;;;17.30;60.30;;;;;;5052588;28;20447;-75
2024/01/22 09:32:30;;;;;;;2.77;1.37;;;17.30;60.20;;;;;;5071982;28;20480;-75
2024/01/22 09:34:59;;;;;;;1.50;1.20;;;17.30;60.10;;;;;;5080372;28;20487;-74
2024/01/22 09:37:27;;;;;;;1.20;1.10;;;17.30;60.10;;;;;;5076610;28;20500;-74
2024/01/22 09:39:55;;;;;;;2.40;1.30;;;17.30;60.20;;;;;;5077063;28;20433;-75
2024/01/22 09:42:24;;;;;;;3.13;1.40;;;17.30;60.10;;;;;;5058383;28;20975;-76
2024/01/22 09:44:54;;;;;;;2.03;1.40;;;17.30;60.40;;;;;;5059749;28;20443;-76
2024/01/22 09:47:22;;;;;;;4.43;1.73;;;17.30;60.30;;;;;;5062710;28;20469;-75
2024/01/22 09:49:51;;;;;;;1.67;1.53;;;17.40;60.50;;;;;;5057984;28;20450;-74
2024/01/22 09:52:19;;;;;;;1.53;1.30;;;17.40;60.40;;;;;;5055664;28;20473;-75
2024/01/22 09:54:48;;;;;;;1.60;1.50;;;17.40;60.30;;;;;;5043549;28;20438;-75
2024/01/22 09:57:17;;;;;;;2.40;1.27;;;17.40;60.20;;;;;;5056673;28;20452;-75
2024/01/22 09:59:45;;;;;;;1.67;1.47;;;17.40;60.30;;;;;;5059455;28;20446;-76
2024/01/22 10:02:16;;;;;;;1.63;1.30;;;17.40;60.40;;;;;;5061528;28;20430;-77
2024/01/22 10:04:44;;;;;;;2.37;1.30;;;17.40;60.20;;;;;;5058803;28;20466;-76
2024/01/22 10:07:15;;;;;;;1.50;1.33;;;17.40;60.00;;;;;;5056091;28;20438;-76
2024/01/22 10:09:43;;;;;;;1.20;1.10;;;17.30;60.00;;;;;;5054943;28;20435;-75
2024/01/22 10:12:12;;;;;;;1.80;1.43;;;17.30;60.20;;;;;;5054411;28;20477;-75
2024/01/22 10:14:42;;;;;;;2.27;1.30;;;17.40;60.20;;;;;;5054337;28;20439;-75
2024/01/22 10:17:17;;;;;;;1.53;1.17;;;17.40;60.10;;;;;;5054393;28;20442;-75
2024/01/22 10:19:45;;;;;;;1.63;1.30;;;17.50;60.10;;;;;;5055489;28;20453;-76
2024/01/22 10:22:18;;;;;;;3.60;1.50;;;17.50;60.10;;;;;;5056077;28;20485;-75
2024/01/22 10:24:58;;;;;;;1.83;1.53;;;17.40;59.80;;;;;;5056769;28;20438;-76
2024/01/22 10:27:26;;;;;;;1.43;1.33;;;17.50;59.90;;;;;;5056074;28;20533;-75
2024/01/22 10:30:08;;;;;;;1.10;1.00;;;17.50;59.90;;;;;;5056252;28;20453;-73
2024/01/22 10:32:36;;;;;;;3.13;1.40;;;17.50;59.70;;;;;;5056797;28;20999;-75
2024/01/22 10:35:04;;;;;;;1.20;1.20;;;17.60;59.80;;;;;;5052559;28;20443;-75
2024/01/22 10:37:35;;;;;;;1.53;1.20;;;17.60;59.70;;;;;;5046348;28;20431;-75
2024/01/22 10:40:08;;;;;;;1.33;1.23;;;17.70;59.50;;;;;;5054888;28;20867;-75
2024/01/22 10:42:36;;;;;;;2.43;1.60;;;17.70;59.50;;;;;;5056095;28;20528;-76
2024/01/22 10:45:07;;;;;;;2.80;1.57;;;17.70;59.50;;;;;;5054641;28;20447;-75
2024/01/22 10:47:35;;;;;;;1.30;1.20;;;17.80;59.30;;;;;;5055130;28;20521;-74
2024/01/22 10:50:04;;;;;;;4.00;1.37;;;17.90;59.30;;;;;;5054396;28;20515;-73
2024/01/22 10:52:32;;;;;;;1.73;1.40;;;17.90;59.20;;;;;;5053311;28;20474;-74
2024/01/22 10:55:02;;;;;;;1.83;1.40;;;17.90;59.00;;;;;;5039829;28;20454;-75
2024/01/22 10:57:34;;;;;;;1.73;1.23;;;17.90;58.90;;;;;;5048849;28;20449;-74
2024/01/22 11:00:06;;;;;;;3.07;1.37;;;17.90;59.00;;;;;;5053529;28;20508;-74
2024/01/22 11:02:35;;;;;;;2.00;1.50;;;17.90;58.90;;;;;;5050932;28;20469;-75
2024/01/22 11:05:05;;;;;;;5.53;1.80;;;17.90;59.00;;;;;;5053293;28;20534;-74
2024/01/22 11:07:34;;;;;;;2.17;1.50;;;18.00;59.00;;;;;;5064636;28;20448;-75
2024/01/22 11:10:04;;;;;;;6.77;2.13;;;18.00;58.90;;;;;;5066801;28;20541;-79
2024/01/22 11:12:42;;;;;;;3.03;1.80;;;18.10;58.80;;;;;;5051888;28;20556;-75
2024/01/22 11:15:10;;;;;;;4.00;2.10;;;18.10;58.80;;;;;;5053532;28;20438;-75
2024/01/22 11:17:38;;;;;;;3.43;1.87;;;18.10;58.60;;;;;;5053251;28;20457;-75
2024/01/22 11:20:16;;;;;;;4.63;2.07;;;18.10;58.60;;;;;;5054047;28;20529;-75
2024/01/22 11:22:46;;;;;;;3.43;2.03;;;18.20;58.60;;;;;;5041429;28;20517;-75
2024/01/22 11:25:16;;;;;;;4.23;1.80;;;18.10;58.60;;;;;;5033859;28;21053;-75
2024/01/22 11:27:44;;;;;;;4.80;2.00;;;18.20;58.80;;;;;;5033974;28;20443;-75
2024/01/22 11:30:28;;;;;;;4.07;2.20;;;18.20;58.60;;;;;;5033445;28;20451;-74
2024/01/22 11:32:56;;;;;;;7.50;2.27;;;18.30;58.60;;;;;;5033105;28;20482;-75
2024/01/22 11:35:33;;;;;;;5.90;2.50;;;18.30;58.50;;;;;;5050587;28;20447;-74
2024/01/22 11:38:03;;;;;;;6.67;2.40;;;18.30;58.40;;;;;;5052831;28;20434;-75
2024/01/22 11:40:48;;;;;;;3.53;2.00;;;18.30;58.40;;;;;;5053714;28;20474;-75
2024/01/22 11:43:17;;;;;;;7.10;2.17;;;18.30;58.30;;;;;;5050582;28;20467;-75
2024/01/22 11:45:45;;;;;;;3.80;2.13;;;18.30;58.20;;;;;;5053062;28;20467;-75
2024/01/22 11:48:17;;;;;;;8.43;2.40;;;18.30;58.30;;;;;;5052514;28;20439;-75
2024/01/22 11:50:57;;;;;;;2.87;1.80;;;18.30;58.30;;;;;;5052324;28;20439;-75
2024/01/22 11:53:25;;;;;;;5.20;2.43;;;18.30;58.40;;;;;;5051183;28;20498;-74
2024/01/22 11:56:04;;;;;;;4.90;2.10;;;18.30;58.40;;;;;;5048184;28;20496;-74
2024/01/22 11:58:33;;;;;;;10.23;2.37;;;18.30;58.40;;;;;;5052662;28;20449;-75
2024/01/22 12:01:04;;;;;;;5.37;2.10;;;18.30;58.60;;;;;;5052392;28;20481;-74
2024/01/22 12:03:32;;;;;;;7.43;2.33;;;18.30;58.50;;;;;;5052067;28;20466;-75
2024/01/22 12:06:00;;;;;;;4.83;2.23;;;18.30;58.60;;;;;;5049066;28;20442;-74
2024/01/22 12:08:28;;;;;;;7.40;2.50;;;18.30;58.40;;;;;;5052385;28;20469;-74
2024/01/22 12:11:08;;;;;;;11.17;3.10;;;18.60;59.80;;;;;;5052692;28;21009;-75
2024/01/22 12:13:36;;;;;;;5.40;2.60;;;19.00;59.20;;;;;;5046585;28;20477;-74
2024/01/22 12:16:04;;;;;;;11.17;2.60;;;19.50;58.80;;;;;;5051000;28;20892;-76
2024/01/22 12:18:33;;;;;;;4.90;2.57;;;19.80;58.10;;;;;;5054264;28;20953;-76
2024/01/22 12:21:01;;;;;;;6.63;2.10;;;20.20;57.80;;;;;;5050717;28;20484;-75
2024/01/22 12:23:29;;;;;;;13.50;3.00;;;20.50;57.50;;;;;;5052345;28;20467;-76
2024/01/22 12:25:59;;;;;;;7.33;2.60;;;20.80;57.10;;;;;;5049412;28;20874;-76
2024/01/22 12:28:35;;;;;;;6.57;2.63;;;21.10;56.70;;;;;;5049546;28;20421;-76
2024/01/22 12:31:03;;;;;;;9.97;3.37;;;21.40;56.40;;;;;;5049172;28;20450;-75
2024/01/22 12:33:35;;;;;;;5.60;2.33;;;21.70;56.20;;;;;;5049491;28;20818;-77
2024/01/22 12:36:08;;;;;;;6.50;2.57;;;22.00;55.90;;;;;;5050778;28;20438;-76
2024/01/22 12:38:38;;;;;;;12.83;3.10;;;22.30;55.60;;;;;;5048962;28;20438;-75
2024/01/22 12:41:09;;;;;;;9.13;3.10;;;22.40;54.90;;;;;;5047555;28;20530;-76
2024/01/22 12:43:40;;;;;;;9.20;2.97;;;22.50;54.70;;;;;;5057977;28;20444;-76
2024/01/22 12:46:10;;;;;;;11.87;3.43;;;22.70;54.90;;;;;;5047580;28;20439;-76
2024/01/22 12:48:38;;;;;;;11.50;3.00;;;22.70;54.50;;;;;;5050480;28;20443;-77
2024/01/22 12:51:08;;;;;;;8.83;3.20;;;22.70;54.40;;;;;;5045362;28;20446;-76
2024/01/22 12:53:36;;;;;;;9.03;3.10;;;22.60;54.10;;;;;;5044415;28;20558;-77
2024/01/22 12:58:36;;;;;;;8.00;3.10;;;22.40;54.50;;;;;;5020692;28;20467;-82